createdAt,value
2022-09-23T21:59:32.812Z,94.84
2022-09-23T22:00:32.806Z,94.73
2022-09-23T22:01:32.805Z,94.84
2022-09-23T22:02:32.726Z,95.04
2022-09-23T22:03:32.804Z,94.93
2022-09-23T22:04:32.829Z,95.14
2022-09-23T22:05:32.730Z,95.45
2022-09-23T22:06:32.675Z,95.45
2022-09-23T22:07:32.667Z,95.45
2022-09-23T22:08:32.655Z,95.54
2022-09-23T22:09:32.640Z,95.65
2022-09-23T22:10:32.622Z,95.69
2022-09-23T22:11:32.636Z,95.90
2022-09-23T22:12:32.613Z,95.90
2022-09-23T22:13:32.578Z,95.85
2022-09-23T22:14:32.576Z,95.79
2022-09-23T22:15:32.567Z,95.79
2022-09-23T22:16:32.613Z,95.85
2022-09-23T22:17:32.550Z,96.26
2022-09-23T22:18:32.526Z,96.36
2022-09-23T22:19:32.487Z,96.15
2022-09-23T22:20:32.494Z,95.95
2022-09-23T22:21:32.485Z,95.75
2022-09-23T22:22:32.452Z,95.65
2022-09-23T22:23:32.433Z,95.45
2022-09-23T22:24:32.418Z,95.34
2022-09-23T22:25:32.422Z,94.73
2022-09-23T22:26:32.427Z,94.73
2022-09-23T22:27:32.380Z,94.53
2022-09-23T22:28:32.367Z,94.12
2022-09-23T22:29:32.364Z,94.18
2022-09-23T22:30:32.348Z,94.08
2022-09-23T22:31:32.506Z,93.16
2022-09-23T22:32:32.337Z,92.86
2022-09-23T22:33:32.294Z,92.76
2022-09-23T22:34:48.969Z,92.76
2022-09-23T22:35:33.274Z,92.71
2022-09-23T22:36:32.239Z,92.91
2022-09-23T22:37:32.273Z,92.71
2022-09-23T22:38:32.235Z,92.71
2022-09-23T22:39:32.214Z,92.91
2022-09-23T22:40:32.234Z,92.21
2022-09-23T22:41:32.173Z,92.21
2022-09-23T22:42:32.158Z,91.19
2022-09-23T22:43:32.163Z,92.00
2022-09-23T22:44:32.125Z,92.10
2022-09-23T22:45:32.128Z,91.49
2022-09-23T22:46:32.172Z,91.09
2022-09-23T22:47:32.097Z,91.90
2022-09-23T22:48:32.068Z,91.80
2022-09-23T22:49:32.076Z,92.10
2022-09-23T22:50:32.079Z,92.41
2022-09-23T22:51:32.026Z,92.71
2022-09-23T22:52:32.013Z,92.82
2022-09-23T22:53:31.998Z,92.91
2022-09-23T22:54:34.159Z,93.22
2022-09-23T22:55:31.980Z,93.16
2022-09-23T22:56:31.987Z,92.76
2022-09-23T22:57:31.968Z,92.25
2022-09-23T22:58:32.942Z,92.35
2022-09-23T22:59:31.916Z,92.45
2022-09-23T23:00:31.905Z,92.45
2022-09-23T23:01:31.958Z,92.55
2022-09-23T23:02:31.905Z,92.96
2022-09-23T23:03:31.881Z,92.86
2022-09-23T23:04:31.854Z,93.06
2022-09-23T23:05:31.855Z,93.16
2022-09-23T23:06:31.826Z,93.16
2022-09-23T23:07:31.833Z,93.57
2022-09-23T23:08:31.821Z,94.18
2022-09-23T23:09:31.779Z,93.98
2022-09-23T23:10:31.777Z,92.82
2022-09-23T23:11:31.765Z,92.82
2022-09-23T23:12:31.747Z,92.61
2022-09-23T23:13:31.761Z,92.51
2022-09-23T23:14:31.735Z,92.51
2022-09-23T23:15:31.701Z,92.71
2022-09-23T23:16:31.723Z,93.12
2022-09-23T23:17:31.677Z,93.32
2022-09-23T23:18:31.681Z,93.43
2022-09-23T23:19:31.676Z,93.43
2022-09-23T23:20:31.641Z,93.43
2022-09-23T23:21:31.619Z,93.43
2022-09-23T23:22:31.598Z,93.52
2022-09-23T23:23:31.592Z,93.52
2022-09-23T23:24:31.582Z,93.73
2022-09-23T23:25:31.590Z,93.83
2022-09-23T23:26:31.551Z,93.73
2022-09-23T23:27:31.538Z,93.52
2022-09-23T23:28:31.527Z,93.63
2022-09-23T23:29:31.518Z,93.63
2022-09-23T23:30:31.527Z,93.73
2022-09-23T23:31:31.597Z,93.93
2022-09-23T23:32:31.472Z,93.93
2022-09-23T23:33:31.483Z,94.04
2022-09-23T23:34:31.433Z,94.04
2022-09-23T23:35:31.428Z,94.04
2022-09-23T23:36:31.393Z,94.24
2022-09-23T23:37:31.403Z,94.44
2022-09-23T23:38:31.383Z,94.54
2022-09-23T23:39:31.366Z,94.64
2022-09-23T23:40:31.395Z,94.95
2022-09-23T23:41:31.356Z,94.95
2022-09-23T23:42:31.325Z,94.85
2022-09-23T23:43:31.306Z,94.74
2022-09-23T23:44:31.319Z,94.74
2022-09-23T23:45:31.287Z,94.85
2022-09-23T23:46:31.293Z,94.85
2022-09-23T23:47:31.265Z,95.05
2022-09-23T23:48:31.250Z,95.05
2022-09-23T23:49:31.233Z,95.05
2022-09-23T23:50:31.234Z,95.05
2022-09-23T23:51:31.221Z,95.05
2022-09-23T23:52:31.189Z,95.15
2022-09-23T23:53:31.197Z,95.36
2022-09-23T23:54:31.152Z,95.36
2022-09-23T23:55:31.147Z,95.25
2022-09-23T23:56:31.133Z,95.15
2022-09-23T23:57:31.133Z,95.15
2022-09-23T23:58:31.109Z,95.10
2022-09-23T23:59:31.133Z,95.10
